sensor_id;sensor_type;location;lat;lon;timestamp;pressure;altitude;pressure_sealevel;temperature;humidity
21566;BME280;10943;48.738;9.320;2022-11-04T00:02:02;97896.22;;;14.23;72.32
21566;BME280;10943;48.738;9.320;2022-11-04T00:04:30;97903.72;;;14.28;72.45
21566;BME280;10943;48.738;9.320;2022-11-04T00:06:57;97907.09;;;14.25;72.37
21566;BME280;10943;48.738;9.320;2022-11-04T00:09:28;97897.38;;;14.22;72.03
21566;BME280;10943;48.738;9.320;2022-11-04T00:11:57;97890.44;;;14.14;72.16
21566;BME280;10943;48.738;9.320;2022-11-04T00:14:43;97880.16;;;14.10;72.42
21566;BME280;10943;48.738;9.320;2022-11-04T00:17:11;97895.19;;;14.09;72.59
21566;BME280;10943;48.738;9.320;2022-11-04T00:19:47;97888.84;;;14.03;73.03
21566;BME280;10943;48.738;9.320;2022-11-04T00:22:36;97886.16;;;14.32;71.24
21566;BME280;10943;48.738;9.320;2022-11-04T00:25:23;97882.44;;;14.02;72.54
21566;BME280;10943;48.738;9.320;2022-11-04T00:28:18;97897.69;;;14.15;71.65
21566;BME280;10943;48.738;9.320;2022-11-04T00:31:07;97892.88;;;14.26;71.54
21566;BME280;10943;48.738;9.320;2022-11-04T00:33:56;97887.06;;;14.17;71.80
21566;BME280;10943;48.738;9.320;2022-11-04T00:36:25;97883.81;;;14.05;71.97
21566;BME280;10943;48.738;9.320;2022-11-04T00:38:53;97886.22;;;13.67;72.82
21566;BME280;10943;48.738;9.320;2022-11-04T00:41:20;97888.94;;;13.82;73.10
21566;BME280;10943;48.738;9.320;2022-11-04T00:44:02;97892.53;;;13.83;73.22
21566;BME280;10943;48.738;9.320;2022-11-04T00:46:32;97887.13;;;14.07;73.04
21566;BME280;10943;48.738;9.320;2022-11-04T00:49:00;97894.50;;;14.32;71.07
21566;BME280;10943;48.738;9.320;2022-11-04T00:51:28;97900.53;;;14.45;71.00
21566;BME280;10943;48.738;9.320;2022-11-04T00:54:00;97894.63;;;14.51;70.24
21566;BME280;10943;48.738;9.320;2022-11-04T00:56:28;97905.63;;;14.38;70.59
21566;BME280;10943;48.738;9.320;2022-11-04T00:58:58;97903.53;;;14.14;71.48
21566;BME280;10943;48.738;9.320;2022-11-04T01:01:26;97905.41;;;14.29;70.72
21566;BME280;10943;48.738;9.320;2022-11-04T01:03:54;97907.53;;;13.97;72.03
21566;BME280;10943;48.738;9.320;2022-11-04T01:06:25;97904.69;;;14.13;71.58
21566;BME280;10943;48.738;9.320;2022-11-04T01:08:58;97906.63;;;14.07;71.64
21566;BME280;10943;48.738;9.320;2022-11-04T01:11:28;97907.84;;;13.91;72.05
21566;BME280;10943;48.738;9.320;2022-11-04T01:13:57;97897.53;;;13.91;72.20
21566;BME280;10943;48.738;9.320;2022-11-04T01:16:31;97902.06;;;13.82;73.05
21566;BME280;10943;48.738;9.320;2022-11-04T01:18:59;97913.41;;;13.91;72.52
21566;BME280;10943;48.738;9.320;2022-11-04T01:21:27;97924.00;;;13.94;72.79
21566;BME280;10943;48.738;9.320;2022-11-04T01:23:55;97927.63;;;13.89;72.28
21566;BME280;10943;48.738;9.320;2022-11-04T01:26:25;97928.47;;;13.95;72.65
21566;BME280;10943;48.738;9.320;2022-11-04T01:28:54;97934.81;;;14.00;72.21
21566;BME280;10943;48.738;9.320;2022-11-04T01:31:27;97932.31;;;14.04;71.87
21566;BME280;10943;48.738;9.320;2022-11-04T01:33:58;97924.94;;;14.24;70.57
21566;BME280;10943;48.738;9.320;2022-11-04T01:36:26;97919.31;;;13.79;71.45
21566;BME280;10943;48.738;9.320;2022-11-04T01:38:55;97920.78;;;13.61;72.82
21566;BME280;10943;48.738;9.320;2022-11-04T01:41:27;97932.22;;;13.54;72.89
21566;BME280;10943;48.738;9.320;2022-11-04T01:47:38;97938.56;;;13.75;73.10
21566;BME280;10943;48.738;9.320;2022-11-04T01:50:14;97931.03;;;13.76;72.21
21566;BME280;10943;48.738;9.320;2022-11-04T01:52:51;97918.25;;;13.69;72.53
21566;BME280;10943;48.738;9.320;2022-11-04T01:55:29;97913.72;;;13.84;70.77
21566;BME280;10943;48.738;9.320;2022-11-04T01:58:05;97918.34;;;13.39;72.79
21566;BME280;10943;48.738;9.320;2022-11-04T02:00:38;97924.44;;;13.56;72.70
21566;BME280;10943;48.738;9.320;2022-11-04T02:03:44;97927.56;;;13.24;73.30
21566;BME280;10943;48.738;9.320;2022-11-04T02:06:18;97919.47;;;13.32;73.54
21566;BME280;10943;48.738;9.320;2022-11-04T02:08:47;97905.78;;;13.46;73.30
21566;BME280;10943;48.738;9.320;2022-11-04T02:11:15;97897.41;;;13.51;72.56
21566;BME280;10943;48.738;9.320;2022-11-04T02:14:01;97901.63;;;13.33;72.32
21566;BME280;10943;48.738;9.320;2022-11-04T02:16:43;97899.41;;;13.41;73.11
21566;BME280;10943;48.738;9.320;2022-11-04T02:29:13;97922.78;;;13.45;73.15
21566;BME280;10943;48.738;9.320;2022-11-04T02:35:04;97927.16;;;13.72;70.71
21566;BME280;10943;48.738;9.320;2022-11-04T02:46:57;97912.25;;;13.21;72.85
21566;BME280;10943;48.738;9.320;2022-11-04T02:49:53;97929.69;;;13.63;70.15
21566;BME280;10943;48.738;9.320;2022-11-04T02:52:42;97927.25;;;13.41;71.67
21566;BME280;10943;48.738;9.320;2022-11-04T02:55:45;97909.97;;;13.28;72.51
21566;BME280;10943;48.738;9.320;2022-11-04T02:58:35;97916.81;;;13.77;69.01
21566;BME280;10943;48.738;9.320;2022-11-04T03:01:10;97907.16;;;13.54;70.57
21566;BME280;10943;48.738;9.320;2022-11-04T03:03:47;97920.59;;;13.36;71.37
21566;BME280;10943;48.738;9.320;2022-11-04T03:06:23;97906.09;;;13.29;71.59
21566;BME280;10943;48.738;9.320;2022-11-04T03:08:52;97911.13;;;13.38;71.35
21566;BME280;10943;48.738;9.320;2022-11-04T03:11:24;97910.81;;;13.34;71.83
21566;BME280;10943;48.738;9.320;2022-11-04T03:14:07;97912.44;;;13.56;71.25
21566;BME280;10943;48.738;9.320;2022-11-04T03:16:56;97918.63;;;13.37;71.35
21566;BME280;10943;48.738;9.320;2022-11-04T03:19:52;97927.84;;;13.17;72.01
21566;BME280;10943;48.738;9.320;2022-11-04T03:22:28;97935.06;;;13.18;71.66
21566;BME280;10943;48.738;9.320;2022-11-04T03:25:01;97930.06;;;13.15;72.01
21566;BME280;10943;48.738;9.320;2022-11-04T03:30:57;97949.03;;;12.77;72.36
21566;BME280;10943;48.738;9.320;2022-11-04T03:33:47;97945.66;;;12.54;73.21
21566;BME280;10943;48.738;9.320;2022-11-04T03:36:18;97955.66;;;12.55;73.13
21566;BME280;10943;48.738;9.320;2022-11-04T03:38:50;97952.91;;;12.70;72.62
21566;BME280;10943;48.738;9.320;2022-11-04T03:41:51;97950.13;;;12.76;72.49
21566;BME280;10943;48.738;9.320;2022-11-04T03:44:23;97952.63;;;12.82;72.49
21566;BME280;10943;48.738;9.320;2022-11-04T03:46:52;97958.47;;;12.91;72.12
21566;BME280;10943;48.738;9.320;2022-11-04T03:49:23;97958.75;;;12.90;71.97
21566;BME280;10943;48.738;9.320;2022-11-04T03:51:51;97967.94;;;12.90;71.86
21566;BME280;10943;48.738;9.320;2022-11-04T03:54:19;97972.34;;;12.55;72.21
21566;BME280;10943;48.738;9.320;2022-11-04T04:00:12;97972.31;;;12.29;73.30
21566;BME280;10943;48.738;9.320;2022-11-04T04:03:24;97974.81;;;12.36;73.06
21566;BME280;10943;48.738;9.320;2022-11-04T04:06:14;97970.69;;;12.54;73.28
21566;BME280;10943;48.738;9.320;2022-11-04T04:09:25;97976.25;;;12.54;73.41
21566;BME280;10943;48.738;9.320;2022-11-04T04:12:02;97977.06;;;12.60;72.34
21566;BME280;10943;48.738;9.320;2022-11-04T04:14:46;97985.72;;;12.94;71.06
21566;BME280;10943;48.738;9.320;2022-11-04T04:17:47;97974.06;;;12.82;71.77
21566;BME280;10943;48.738;9.320;2022-11-04T04:20:25;97973.19;;;12.76;71.89
21566;BME280;10943;48.738;9.320;2022-11-04T04:23:07;97959.56;;;12.75;71.49
21566;BME280;10943;48.738;9.320;2022-11-04T04:25:59;97957.06;;;12.58;72.70
21566;BME280;10943;48.738;9.320;2022-11-04T04:28:49;97965.13;;;12.59;72.13
21566;BME280;10943;48.738;9.320;2022-11-04T04:31:20;97977.06;;;12.65;71.69
21566;BME280;10943;48.738;9.320;2022-11-04T04:34:11;97987.34;;;12.54;72.22
21566;BME280;10943;48.738;9.320;2022-11-04T04:36:59;97985.16;;;12.66;71.89
21566;BME280;10943;48.738;9.320;2022-11-04T04:39:40;97992.13;;;12.74;71.23
21566;BME280;10943;48.738;9.320;2022-11-04T04:42:34;97984.91;;;12.88;70.04
21566;BME280;10943;48.738;9.320;2022-11-04T04:45:35;97992.88;;;12.33;71.32
21566;BME280;10943;48.738;9.320;2022-11-04T04:48:07;97987.59;;;12.37;71.86
21566;BME280;10943;48.738;9.320;2022-11-04T04:50:43;97983.50;;;12.65;70.88
21566;BME280;10943;48.738;9.320;2022-11-04T04:53:14;97963.97;;;12.40;71.43
21566;BME280;10943;48.738;9.320;2022-11-04T04:55:44;97962.56;;;12.21;71.99
21566;BME280;10943;48.738;9.320;2022-11-04T04:58:12;97961.44;;;12.17;72.24
21566;BME280;10943;48.738;9.320;2022-11-04T05:00:40;97945.03;;;12.11;72.62
21566;BME280;10943;48.738;9.320;2022-11-04T05:03:07;97919.06;;;11.89;72.27
21566;BME280;10943;48.738;9.320;2022-11-04T05:05:35;97908.53;;;11.92;72.49
21566;BME280;10943;48.738;9.320;2022-11-04T05:08:06;97906.41;;;12.04;72.53
21566;BME280;10943;48.738;9.320;2022-11-04T05:10:35;97903.88;;;12.08;72.29
21566;BME280;10943;48.738;9.320;2022-11-04T05:13:02;97905.00;;;12.07;72.49
21566;BME280;10943;48.738;9.320;2022-11-04T05:15:48;97893.38;;;12.30;71.63
21566;BME280;10943;48.738;9.320;2022-11-04T05:18:16;97907.28;;;12.46;70.63
21566;BME280;10943;48.738;9.320;2022-11-04T05:20:46;97902.25;;;12.22;71.69
21566;BME280;10943;48.738;9.320;2022-11-04T05:23:16;97914.50;;;12.31;71.00
21566;BME280;10943;48.738;9.320;2022-11-04T05:25:44;97924.22;;;12.24;71.29
21566;BME280;10943;48.738;9.320;2022-11-04T05:28:13;97928.94;;;12.28;71.45
21566;BME280;10943;48.738;9.320;2022-11-04T05:30:41;97923.34;;;12.18;72.10
21566;BME280;10943;48.738;9.320;2022-11-04T05:33:08;97928.63;;;12.09;72.30
21566;BME280;10943;48.738;9.320;2022-11-04T05:35:36;97922.47;;;11.97;72.51
21566;BME280;10943;48.738;9.320;2022-11-04T05:38:04;97933.81;;;11.90;72.37
21566;BME280;10943;48.738;9.320;2022-11-04T05:40:31;97941.31;;;11.95;72.42
21566;BME280;10943;48.738;9.320;2022-11-04T05:42:59;97943.88;;;11.96;72.24
21566;BME280;10943;48.738;9.320;2022-11-04T05:45:28;97952.44;;;11.95;72.51
21566;BME280;10943;48.738;9.320;2022-11-04T05:48:00;97949.09;;;11.87;72.58
21566;BME280;10943;48.738;9.320;2022-11-04T05:50:31;97940.44;;;11.79;72.42
21566;BME280;10943;48.738;9.320;2022-11-04T05:52:59;97936.00;;;11.83;73.03
21566;BME280;10943;48.738;9.320;2022-11-04T05:55:27;97927.00;;;11.55;71.98
21566;BME280;10943;48.738;9.320;2022-11-04T05:57:55;97916.75;;;11.55;73.17
21566;BME280;10943;48.738;9.320;2022-11-04T06:00:26;97917.06;;;11.64;72.43
21566;BME280;10943;48.738;9.320;2022-11-04T06:02:54;97908.72;;;11.59;72.60
21566;BME280;10943;48.738;9.320;2022-11-04T06:05:25;97918.19;;;11.73;72.44
21566;BME280;10943;48.738;9.320;2022-11-04T06:07:54;97930.41;;;11.72;72.39
21566;BME280;10943;48.738;9.320;2022-11-04T06:10:23;97930.00;;;12.01;70.64
21566;BME280;10943;48.738;9.320;2022-11-04T06:12:50;97936.47;;;12.48;68.51
21566;BME280;10943;48.738;9.320;2022-11-04T06:15:43;97940.66;;;12.56;68.34
21566;BME280;10943;48.738;9.320;2022-11-04T06:18:10;97938.09;;;12.13;70.40
21566;BME280;10943;48.738;9.320;2022-11-04T06:20:37;97944.34;;;11.88;70.98
21566;BME280;10943;48.738;9.320;2022-11-04T06:23:04;97958.09;;;11.57;72.03
21566;BME280;10943;48.738;9.320;2022-11-04T06:25:32;97985.41;;;11.70;71.75
21566;BME280;10943;48.738;9.320;2022-11-04T06:27:59;97989.56;;;11.73;72.07
21566;BME280;10943;48.738;9.320;2022-11-04T06:30:26;97983.88;;;11.95;70.54
21566;BME280;10943;48.738;9.320;2022-11-04T06:32:53;97976.13;;;12.13;69.83
21566;BME280;10943;48.738;9.320;2022-11-04T06:35:20;97976.09;;;12.02;70.71
21566;BME280;10943;48.738;9.320;2022-11-04T06:37:48;97980.28;;;12.05;70.45
21566;BME280;10943;48.738;9.320;2022-11-04T06:40:15;97986.56;;;11.85;71.50
21566;BME280;10943;48.738;9.320;2022-11-04T06:42:42;97983.03;;;12.00;70.73
21566;BME280;10943;48.738;9.320;2022-11-04T06:45:11;97977.97;;;11.92;70.74
21566;BME280;10943;48.738;9.320;2022-11-04T06:47:38;97975.59;;;12.11;70.02
21566;BME280;10943;48.738;9.320;2022-11-04T06:50:06;97980.47;;;11.88;70.96
21566;BME280;10943;48.738;9.320;2022-11-04T06:52:33;97979.63;;;11.87;71.38
21566;BME280;10943;48.738;9.320;2022-11-04T06:55:09;97983.50;;;11.86;71.35
21566;BME280;10943;48.738;9.320;2022-11-04T06:57:36;97977.38;;;11.74;72.16
21566;BME280;10943;48.738;9.320;2022-11-04T07:00:04;97975.97;;;11.71;72.51
21566;BME280;10943;48.738;9.320;2022-11-04T07:02:33;97976.47;;;11.63;72.53
21566;BME280;10943;48.738;9.320;2022-11-04T07:05:00;97971.72;;;11.53;72.73
21566;BME280;10943;48.738;9.320;2022-11-04T07:07:28;97968.03;;;11.48;73.62
21566;BME280;10943;48.738;9.320;2022-11-04T07:10:20;97961.19;;;11.61;73.00
21566;BME280;10943;48.738;9.320;2022-11-04T07:12:47;97964.25;;;11.64;73.34
21566;BME280;10943;48.738;9.320;2022-11-04T07:15:15;97952.94;;;11.81;73.10
21566;BME280;10943;48.738;9.320;2022-11-04T07:17:53;97944.38;;;11.93;72.66
21566;BME280;10943;48.738;9.320;2022-11-04T07:20:21;97942.22;;;12.00;72.27
21566;BME280;10943;48.738;9.320;2022-11-04T07:22:48;97943.50;;;11.77;72.67
21566;BME280;10943;48.738;9.320;2022-11-04T07:25:15;97938.31;;;11.96;73.27
21566;BME280;10943;48.738;9.320;2022-11-04T07:27:43;97941.94;;;12.07;73.17
21566;BME280;10943;48.738;9.320;2022-11-04T07:30:10;97943.38;;;12.20;72.74
21566;BME280;10943;48.738;9.320;2022-11-04T07:32:38;97948.69;;;12.42;72.34
21566;BME280;10943;48.738;9.320;2022-11-04T07:35:05;97949.53;;;12.58;72.20
21566;BME280;10943;48.738;9.320;2022-11-04T07:37:33;97955.41;;;12.72;71.91
21566;BME280;10943;48.738;9.320;2022-11-04T07:40:00;97955.69;;;12.86;71.67
21566;BME280;10943;48.738;9.320;2022-11-04T07:42:28;97964.03;;;12.91;71.26
21566;BME280;10943;48.738;9.320;2022-11-04T07:44:56;97957.34;;;12.46;71.85
21566;BME280;10943;48.738;9.320;2022-11-04T07:47:48;97951.50;;;12.78;72.80
21566;BME280;10943;48.738;9.320;2022-11-04T07:50:17;97942.31;;;12.88;71.97
21566;BME280;10943;48.738;9.320;2022-11-04T07:52:44;97942.88;;;13.16;71.31
21566;BME280;10943;48.738;9.320;2022-11-04T07:55:13;97948.72;;;13.40;70.71
21566;BME280;10943;48.738;9.320;2022-11-04T07:57:45;97935.56;;;13.61;69.02
21566;BME280;10943;48.738;9.320;2022-11-04T08:00:15;97938.38;;;13.51;70.79
21566;BME280;10943;48.738;9.320;2022-11-04T08:02:43;97930.31;;;13.49;71.52
21566;BME280;10943;48.738;9.320;2022-11-04T08:05:13;97919.41;;;13.58;71.80
21566;BME280;10943;48.738;9.320;2022-11-04T08:07:40;97938.25;;;13.82;71.69
21566;BME280;10943;48.738;9.320;2022-11-04T08:10:08;97939.84;;;13.98;71.42
21566;BME280;10943;48.738;9.320;2022-11-04T08:12:36;97931.97;;;14.16;71.04
21566;BME280;10943;48.738;9.320;2022-11-04T08:15:05;97935.25;;;14.23;71.49
21566;BME280;10943;48.738;9.320;2022-11-04T08:17:33;97938.69;;;14.55;72.29
21566;BME280;10943;48.738;9.320;2022-11-04T08:20:00;97937.56;;;14.95;71.11
21566;BME280;10943;48.738;9.320;2022-11-04T08:22:27;97944.53;;;15.27;67.52
21566;BME280;10943;48.738;9.320;2022-11-04T08:24:59;97949.75;;;15.34;68.96
21566;BME280;10943;48.738;9.320;2022-11-04T08:27:26;97938.94;;;15.81;67.13
21566;BME280;10943;48.738;9.320;2022-11-04T08:29:53;97949.75;;;15.88;68.63
21566;BME280;10943;48.738;9.320;2022-11-04T08:32:20;97955.84;;;15.41;65.87
21566;BME280;10943;48.738;9.320;2022-11-04T08:34:47;97964.69;;;15.19;66.10
21566;BME280;10943;48.738;9.320;2022-11-04T08:37:16;97959.34;;;15.52;64.50
21566;BME280;10943;48.738;9.320;2022-11-04T08:39:43;97966.66;;;15.72;64.49
21566;BME280;10943;48.738;9.320;2022-11-04T08:42:10;97951.66;;;15.92;65.66
21566;BME280;10943;48.738;9.320;2022-11-04T08:44:38;97959.41;;;16.20;66.96
21566;BME280;10943;48.738;9.320;2022-11-04T08:47:05;97949.63;;;16.41;64.70
21566;BME280;10943;48.738;9.320;2022-11-04T08:49:38;97939.16;;;16.09;61.70
21566;BME280;10943;48.738;9.320;2022-11-04T08:52:05;97940.31;;;16.65;61.66
21566;BME280;10943;48.738;9.320;2022-11-04T08:54:33;97941.50;;;16.59;59.82
21566;BME280;10943;48.738;9.320;2022-11-04T08:57:00;97946.59;;;16.57;61.11
21566;BME280;10943;48.738;9.320;2022-11-04T08:59:27;97957.38;;;17.02;58.94
21566;BME280;10943;48.738;9.320;2022-11-04T09:01:55;97960.19;;;17.02;55.96
21566;BME280;10943;48.738;9.320;2022-11-04T09:04:22;97966.25;;;16.52;56.59
21566;BME280;10943;48.738;9.320;2022-11-04T09:06:49;97968.34;;;16.22;56.94
21566;BME280;10943;48.738;9.320;2022-11-04T09:09:18;97967.06;;;16.14;54.52
21566;BME280;10943;48.738;9.320;2022-11-04T09:11:51;97972.81;;;16.42;55.08
21566;BME280;10943;48.738;9.320;2022-11-04T09:14:20;97971.91;;;16.65;53.47
21566;BME280;10943;48.738;9.320;2022-11-04T09:16:49;97984.75;;;16.28;52.92
21566;BME280;10943;48.738;9.320;2022-11-04T09:19:16;97979.56;;;16.60;53.27
21566;BME280;10943;48.738;9.320;2022-11-04T09:21:44;97981.06;;;16.71;52.70
21566;BME280;10943;48.738;9.320;2022-11-04T09:24:11;97984.84;;;16.80;52.55
21566;BME280;10943;48.738;9.320;2022-11-04T09:26:38;97987.13;;;16.97;53.27
21566;BME280;10943;48.738;9.320;2022-11-04T09:29:05;97994.16;;;17.28;52.72
21566;BME280;10943;48.738;9.320;2022-11-04T09:31:36;97985.22;;;17.12;51.36
21566;BME280;10943;48.738;9.320;2022-11-04T09:34:03;97974.69;;;17.37;50.94
21566;BME280;10943;48.738;9.320;2022-11-04T09:36:30;97986.84;;;17.46;51.19
21566;BME280;10943;48.738;9.320;2022-11-04T09:38:58;97991.00;;;17.35;51.59
21566;BME280;10943;48.738;9.320;2022-11-04T09:47:32;97979.25;;;17.32;49.95
21566;BME280;10943;48.738;9.320;2022-11-04T09:50:01;97984.53;;;17.81;48.65
21566;BME280;10943;48.738;9.320;2022-11-04T09:52:38;97967.50;;;17.91;47.32
21566;BME280;10943;48.738;9.320;2022-11-04T09:55:20;97963.25;;;17.19;49.04
21566;BME280;10943;48.738;9.320;2022-11-04T09:57:56;97967.91;;;17.71;49.09
21566;BME280;10943;48.738;9.320;2022-11-04T10:00:35;97959.13;;;18.19;46.65
21566;BME280;10943;48.738;9.320;2022-11-04T10:11:49;97965.06;;;19.68;43.43
21566;BME280;10943;48.738;9.320;2022-11-04T10:14:28;97966.59;;;19.74;43.84
21566;BME280;10943;48.738;9.320;2022-11-04T10:17:40;97966.09;;;20.70;40.92
21566;BME280;10943;48.738;9.320;2022-11-04T10:20:40;97952.03;;;20.70;41.20
21566;BME280;10943;48.738;9.320;2022-11-04T10:23:31;97961.44;;;21.26;40.15
21566;BME280;10943;48.738;9.320;2022-11-04T10:44:36;97933.31;;;24.72;32.54
21566;BME280;10943;48.738;9.320;2022-11-04T10:50:33;97934.84;;;23.83;33.19
21566;BME280;10943;48.738;9.320;2022-11-04T10:53:15;97922.03;;;22.85;36.02
21566;BME280;10943;48.738;9.320;2022-11-04T10:59:26;97932.63;;;22.88;35.54
21566;BME280;10943;48.738;9.320;2022-11-04T11:01:56;97928.69;;;22.38;36.43
21566;BME280;10943;48.738;9.320;2022-11-04T11:04:36;97935.38;;;22.97;35.37
21566;BME280;10943;48.738;9.320;2022-11-04T11:07:08;97935.03;;;23.19;34.24
21566;BME280;10943;48.738;9.320;2022-11-04T11:15:25;97920.13;;;24.14;32.02
21566;BME280;10943;48.738;9.320;2022-11-04T11:18:14;97913.94;;;23.75;33.25
21566;BME280;10943;48.738;9.320;2022-11-04T11:21:12;97921.84;;;23.23;32.97
21566;BME280;10943;48.738;9.320;2022-11-04T11:23:45;97914.69;;;23.05;33.30
21566;BME280;10943;48.738;9.320;2022-11-04T11:26:29;97918.03;;;22.65;34.79
21566;BME280;10943;48.738;9.320;2022-11-04T11:28:58;97917.44;;;22.29;35.44
21566;BME280;10943;48.738;9.320;2022-11-04T11:31:38;97906.28;;;22.33;35.54
21566;BME280;10943;48.738;9.320;2022-11-04T11:34:23;97898.28;;;21.75;34.66
21566;BME280;10943;48.738;9.320;2022-11-04T11:36:54;97894.97;;;21.17;36.39
21566;BME280;10943;48.738;9.320;2022-11-04T11:39:29;97891.97;;;21.13;37.20
21566;BME280;10943;48.738;9.320;2022-11-04T11:42:12;97891.88;;;21.48;36.03
21566;BME280;10943;48.738;9.320;2022-11-04T11:45:15;97889.78;;;22.14;35.46
21566;BME280;10943;48.738;9.320;2022-11-04T11:47:43;97891.53;;;22.27;34.79
21566;BME280;10943;48.738;9.320;2022-11-04T11:50:16;97895.44;;;22.65;34.24
21566;BME280;10943;48.738;9.320;2022-11-04T11:52:51;97896.53;;;22.51;33.63
21566;BME280;10943;48.738;9.320;2022-11-04T11:55:27;97897.59;;;21.78;34.24
21566;BME280;10943;48.738;9.320;2022-11-04T11:58:31;97886.22;;;20.92;35.45
21566;BME280;10943;48.738;9.320;2022-11-04T12:01:38;97888.88;;;20.80;39.20
21566;BME280;10943;48.738;9.320;2022-11-04T12:04:10;97896.16;;;20.28;40.88
21566;BME280;10943;48.738;9.320;2022-11-04T12:07:24;97891.84;;;20.31;41.09
21566;BME280;10943;48.738;9.320;2022-11-04T12:10:54;97888.34;;;20.25;41.62
21566;BME280;10943;48.738;9.320;2022-11-04T12:13:45;97886.06;;;20.36;44.26
21566;BME280;10943;48.738;9.320;2022-11-04T12:16:42;97885.06;;;20.84;41.01
21566;BME280;10943;48.738;9.320;2022-11-04T12:26:23;97893.72;;;21.44;38.53
21566;BME280;10943;48.738;9.320;2022-11-04T12:29:32;97897.97;;;21.12;37.08
21566;BME280;10943;48.738;9.320;2022-11-04T13:02:12;97904.97;;;20.79;36.67
21566;BME280;10943;48.738;9.320;2022-11-04T13:04:59;97911.91;;;20.73;37.55
21566;BME280;10943;48.738;9.320;2022-11-04T13:07:40;97915.56;;;20.91;37.77
21566;BME280;10943;48.738;9.320;2022-11-04T13:10:38;97915.38;;;21.14;37.21
21566;BME280;10943;48.738;9.320;2022-11-04T13:13:11;97916.47;;;21.30;36.46
21566;BME280;10943;48.738;9.320;2022-11-04T13:15:51;97920.94;;;21.40;35.36
21566;BME280;10943;48.738;9.320;2022-11-04T13:18:26;97920.78;;;21.36;36.09
21566;BME280;10943;48.738;9.320;2022-11-04T13:21:12;97920.03;;;21.01;36.40
21566;BME280;10943;48.738;9.320;2022-11-04T13:24:22;97919.69;;;21.11;36.44
21566;BME280;10943;48.738;9.320;2022-11-04T13:27:15;97911.19;;;21.29;35.37
21566;BME280;10943;48.738;9.320;2022-11-04T13:29:49;97914.94;;;21.50;35.51
21566;BME280;10943;48.738;9.320;2022-11-04T13:32:37;97914.44;;;21.66;34.73
21566;BME280;10943;48.738;9.320;2022-11-04T13:38:32;97914.53;;;21.22;35.23
21566;BME280;10943;48.738;9.320;2022-11-04T13:44:25;97913.72;;;21.21;36.03
21566;BME280;10943;48.738;9.320;2022-11-04T13:46:59;97910.16;;;21.42;34.65
21566;BME280;10943;48.738;9.320;2022-11-04T13:49:32;97926.31;;;21.15;35.06
21566;BME280;10943;48.738;9.320;2022-11-04T13:52:10;97923.47;;;21.24;35.93
21566;BME280;10943;48.738;9.320;2022-11-04T13:55:03;97927.91;;;21.34;34.67
21566;BME280;10943;48.738;9.320;2022-11-04T13:58:05;97927.16;;;21.07;34.58
21566;BME280;10943;48.738;9.320;2022-11-04T14:00:34;97934.06;;;20.31;36.36
21566;BME280;10943;48.738;9.320;2022-11-04T14:08:25;97932.31;;;20.70;36.51
21566;BME280;10943;48.738;9.320;2022-11-04T14:16:06;97941.94;;;19.71;37.35
21566;BME280;10943;48.738;9.320;2022-11-04T14:18:46;97941.00;;;19.44;38.13
21566;BME280;10943;48.738;9.320;2022-11-04T14:23:54;97947.25;;;19.72;37.13
21566;BME280;10943;48.738;9.320;2022-11-04T14:26:45;97938.22;;;19.53;38.62
21566;BME280;10943;48.738;9.320;2022-11-04T14:29:32;97947.88;;;19.69;37.85
21566;BME280;10943;48.738;9.320;2022-11-04T14:32:00;97949.78;;;19.51;38.15
21566;BME280;10943;48.738;9.320;2022-11-04T14:34:33;97966.28;;;19.44;38.10
21566;BME280;10943;48.738;9.320;2022-11-04T14:37:22;97972.34;;;18.55;42.00
21566;BME280;10943;48.738;9.320;2022-11-04T14:39:58;97971.03;;;18.11;44.02
21566;BME280;10943;48.738;9.320;2022-11-04T14:42:51;97977.16;;;17.71;45.53
21566;BME280;10943;48.738;9.320;2022-11-04T14:45:38;97978.50;;;17.74;45.89
21566;BME280;10943;48.738;9.320;2022-11-04T14:48:17;97979.78;;;17.35;47.58
21566;BME280;10943;48.738;9.320;2022-11-04T14:50:51;97986.59;;;16.76;49.89
21566;BME280;10943;48.738;9.320;2022-11-04T14:53:35;97985.97;;;16.60;54.14
21566;BME280;10943;48.738;9.320;2022-11-04T14:56:21;97987.75;;;16.32;57.90
21566;BME280;10943;48.738;9.320;2022-11-04T14:59:07;97990.31;;;15.80;59.40
21566;BME280;10943;48.738;9.320;2022-11-04T15:02:24;97994.25;;;15.55;61.73
21566;BME280;10943;48.738;9.320;2022-11-04T15:05:03;97997.88;;;15.26;62.82
21566;BME280;10943;48.738;9.320;2022-11-04T15:11:14;97994.25;;;15.55;65.09
21566;BME280;10943;48.738;9.320;2022-11-04T15:14:24;98003.06;;;15.38;67.04
21566;BME280;10943;48.738;9.320;2022-11-04T15:16:58;98005.34;;;15.30;68.37
21566;BME280;10943;48.738;9.320;2022-11-04T15:19:55;97993.84;;;15.37;68.74
21566;BME280;10943;48.738;9.320;2022-11-04T15:22:33;97997.53;;;14.98;67.76
21566;BME280;10943;48.738;9.320;2022-11-04T15:25:10;97989.91;;;15.09;68.82
21566;BME280;10943;48.738;9.320;2022-11-04T15:27:40;98004.41;;;15.11;67.64
21566;BME280;10943;48.738;9.320;2022-11-04T15:30:23;97993.03;;;15.02;68.13
21566;BME280;10943;48.738;9.320;2022-11-04T15:32:58;97995.63;;;14.93;67.85
21566;BME280;10943;48.738;9.320;2022-11-04T15:35:32;97988.28;;;14.63;68.63
21566;BME280;10943;48.738;9.320;2022-11-04T15:38:11;97999.94;;;14.75;68.68
21566;BME280;10943;48.738;9.320;2022-11-04T15:40:40;98002.13;;;14.83;68.74
21566;BME280;10943;48.738;9.320;2022-11-04T15:43:09;98005.72;;;14.84;67.75
21566;BME280;10943;48.738;9.320;2022-11-04T15:45:49;98012.25;;;14.69;68.65
21566;BME280;10943;48.738;9.320;2022-11-04T15:48:33;98019.25;;;14.61;69.31
21566;BME280;10943;48.738;9.320;2022-11-04T15:51:21;98010.34;;;14.54;69.53
21566;BME280;10943;48.738;9.320;2022-11-04T15:54:06;98014.31;;;14.48;68.58
21566;BME280;10943;48.738;9.320;2022-11-04T15:56:54;98019.31;;;14.51;69.61
21566;BME280;10943;48.738;9.320;2022-11-04T15:59:36;98029.41;;;14.42;70.10
21566;BME280;10943;48.738;9.320;2022-11-04T16:02:27;98030.53;;;14.41;69.45
21566;BME280;10943;48.738;9.320;2022-11-04T16:07:42;98039.56;;;14.17;69.81
21566;BME280;10943;48.738;9.320;2022-11-04T16:10:31;98038.78;;;13.96;71.04